Time,TemperatureF,DewpointF,PressureIn,WindDirection,WindDirectionDegrees,WindSpeedMPH,WindSpeedGustMPH,Humidity,HourlyPrecipIn,Conditions,Clouds,dailyrainin,SoftwareType,DateUTC
2013-02-07 00:00:00,44.6,20.0,30.30,ESE,112,4.0,7.0,38,0.00,,,0.00,weatherlink.com 1.10,2013-02-07 05:00:00,
2013-02-07 00:15:00,45.5,20.0,30.30,East,96,3.0,8.0,36,0.00,,,0.00,weatherlink.com 1.10,2013-02-07 05:15:00,
2013-02-07 00:30:00,46.2,19.0,30.30,ESE,106,4.0,10.0,34,0.00,,,0.00,weatherlink.com 1.10,2013-02-07 05:30:00,
2013-02-07 00:45:00,46.4,19.0,30.30,ESE,107,8.0,9.0,34,0.00,,,0.00,weatherlink.com 1.10,2013-02-07 05:45:00,
2013-02-07 01:00:00,46.3,19.0,30.31,ESE,113,7.0,12.0,34,0.00,,,0.00,weatherlink.com 1.10,2013-02-07 06:00:00,
2013-02-07 01:15:00,45.7,19.0,30.30,East,99,9.0,10.0,35,0.00,,,0.00,weatherlink.com 1.10,2013-02-07 06:15:00,
2013-02-07 01:30:00,45.2,19.0,30.30,East,82,2.0,9.0,35,0.00,,,0.00,weatherlink.com 1.10,2013-02-07 06:30:00,
2013-02-07 01:45:00,45.0,19.0,30.30,ESE,118,4.0,14.0,36,0.00,,,0.00,weatherlink.com 1.10,2013-02-07 06:45:00,
2013-02-07 02:00:00,44.9,19.0,30.31,East,101,2.0,13.0,36,0.00,,,0.00,weatherlink.com 1.10,2013-02-07 07:00:00,
2013-02-07 02:15:00,44.8,20.0,30.31,ESE,117,4.0,16.0,37,0.00,,,0.00,weatherlink.com 1.10,2013-02-07 07:15:00,
2013-02-07 02:30:00,44.4,21.0,30.32,East,89,2.0,11.0,39,0.00,,,0.00,weatherlink.com 1.10,2013-02-07 07:30:00,
2013-02-07 02:45:00,44.1,21.0,30.31,East,94,2.0,11.0,40,0.00,,,0.00,weatherlink.com 1.10,2013-02-07 07:45:00,
2013-02-07 03:00:00,43.9,21.0,30.30,East,100,5.0,11.0,41,0.00,,,0.00,weatherlink.com 1.10,2013-02-07 08:00:00,
2013-02-07 03:15:00,43.7,21.0,30.30,ESE,102,10.0,10.0,41,0.00,,,0.00,weatherlink.com 1.10,2013-02-07 08:15:00,
2013-02-07 03:30:00,43.7,21.0,30.31,East,94,0.0,11.0,41,0.00,,,0.00,weatherlink.com 1.10,2013-02-07 08:30:00,
2013-02-07 03:45:00,43.5,22.0,30.31,East,86,0.0,15.0,42,0.00,,,0.00,weatherlink.com 1.10,2013-02-07 08:45:00,
2013-02-07 04:00:00,43.2,21.0,30.32,West,265,1.0,11.0,42,0.00,,,0.00,weatherlink.com 1.10,2013-02-07 09:00:00,
2013-02-07 04:15:00,42.6,21.0,30.34,SE,131,9.0,9.0,43,0.00,,,0.00,weatherlink.com 1.10,2013-02-07 09:15:00,
2013-02-07 04:30:00,42.4,22.0,30.34,East,98,5.0,8.0,44,0.00,,,0.00,weatherlink.com 1.10,2013-02-07 09:30:00,
2013-02-07 04:45:00,42.2,22.0,30.34,ESE,115,1.0,12.0,45,0.00,,,0.00,weatherlink.com 1.10,2013-02-07 09:45:00,
2013-02-07 05:00:00,41.8,22.0,30.34,WNW,292,0.0,8.0,46,0.00,,,0.00,weatherlink.com 1.10,2013-02-07 10:00:00,
2013-02-07 05:15:00,41.5,22.0,30.33,ESE,121,3.0,5.0,47,0.00,,,0.00,weatherlink.com 1.10,2013-02-07 10:15:00,
2013-02-07 05:30:00,41.3,23.0,30.33,ESE,103,4.0,7.0,48,0.00,,,0.00,weatherlink.com 1.10,2013-02-07 10:30:00,
2013-02-07 05:45:00,41.4,23.0,30.33,East,92,3.0,8.0,49,0.00,,,0.00,weatherlink.com 1.10,2013-02-07 10:45:00,
2013-02-07 06:00:00,41.5,23.0,30.32,ESE,113,4.0,8.0,49,0.00,,,0.00,weatherlink.com 1.10,2013-02-07 11:00:00,
2013-02-07 06:15:00,41.5,23.0,30.31,ESE,117,7.0,7.0,49,0.00,,,0.00,weatherlink.com 1.10,2013-02-07 11:15:00,
2013-02-07 06:30:00,41.5,23.0,30.31,ESE,115,1.0,5.0,49,0.00,,,0.00,weatherlink.com 1.10,2013-02-07 11:30:00,
2013-02-07 06:45:00,41.6,24.0,30.31,East,87,1.0,9.0,50,0.00,,,0.00,weatherlink.com 1.10,2013-02-07 11:45:00,
2013-02-07 07:00:00,41.8,24.0,30.31,ESE,106,1.0,7.0,50,0.00,,,0.00,weatherlink.com 1.10,2013-02-07 12:00:00,
2013-02-07 07:15:00,41.6,25.0,30.31,South,184,0.0,8.0,51,0.00,,,0.00,weatherlink.com 1.10,2013-02-07 12:15:00,
2013-02-07 07:30:00,41.5,24.0,30.32,SE,127,0.0,3.0,51,0.00,,,0.00,weatherlink.com 1.10,2013-02-07 12:30:00,
2013-02-07 07:45:00,41.4,25.0,30.32,NW,323,1.0,7.0,52,0.00,,,0.00,weatherlink.com 1.10,2013-02-07 12:45:00,
2013-02-07 08:00:00,41.3,25.0,30.32,East,101,2.0,5.0,52,0.00,,,0.00,weatherlink.com 1.10,2013-02-07 13:00:00,
2013-02-07 08:15:00,41.3,25.0,30.33,East,85,2.0,9.0,52,0.00,,,0.00,weatherlink.com 1.10,2013-02-07 13:15:00,
2013-02-07 08:30:00,41.3,25.0,30.32,East,97,7.0,18.0,52,0.00,,,0.00,weatherlink.com 1.10,2013-02-07 13:30:00,
2013-02-07 08:45:00,41.3,25.0,30.32,ENE,66,1.0,12.0,52,0.00,,,0.00,weatherlink.com 1.10,2013-02-07 13:45:00,
2013-02-07 09:00:00,41.3,25.0,30.32,SE,138,6.0,13.0,53,0.00,,,0.00,weatherlink.com 1.10,2013-02-07 14:00:00,
2013-02-07 09:15:00,41.4,25.0,30.32,East,90,3.0,12.0,53,0.00,,,0.00,weatherlink.com 1.10,2013-02-07 14:15:00,
2013-02-07 09:30:00,41.4,26.0,30.32,ESE,123,10.0,11.0,54,0.00,,,0.00,weatherlink.com 1.10,2013-02-07 14:30:00,
2013-02-07 09:45:00,41.5,26.0,30.32,SE,130,5.0,12.0,54,0.00,,,0.00,weatherlink.com 1.10,2013-02-07 14:45:00,
2013-02-07 10:01:00,41.3,26.0,30.32,ESE,113,4.0,11.0,56,0.00,,,0.00,weatherlink.com 1.10,2013-02-07 15:01:00,
2013-02-07 10:16:00,41.2,27.0,30.31,SE,132,7.0,11.0,57,0.00,,,0.00,weatherlink.com 1.10,2013-02-07 15:16:00,
2013-02-07 10:31:00,41.3,27.0,30.30,SE,140,1.0,8.0,57,0.00,,,0.00,weatherlink.com 1.10,2013-02-07 15:31:00,
2013-02-07 10:46:00,41.7,28.0,30.30,SE,128,1.0,6.0,58,0.00,,,0.00,weatherlink.com 1.10,2013-02-07 15:46:00,
2013-02-07 11:01:00,41.6,28.0,30.30,ESE,115,5.0,7.0,58,0.00,,,0.00,weatherlink.com 1.10,2013-02-07 16:01:00,
2013-02-07 11:16:00,41.8,28.0,30.30,East,88,3.0,9.0,58,0.00,,,0.00,weatherlink.com 1.10,2013-02-07 16:16:00,
2013-02-07 11:31:00,41.8,28.0,30.30,East,100,2.0,8.0,58,0.00,,,0.00,weatherlink.com 1.10,2013-02-07 16:31:00,
2013-02-07 11:46:00,41.6,28.0,30.28,WNW,291,0.0,4.0,59,0.00,,,0.00,weatherlink.com 1.10,2013-02-07 16:46:00,
2013-02-07 12:01:00,41.3,29.0,30.27,East,96,5.0,9.0,61,0.00,,,0.00,weatherlink.com 1.10,2013-02-07 17:01:00,
2013-02-07 12:16:00,40.7,32.0,30.27,NE,51,0.0,12.0,70,0.00,,,0.00,weatherlink.com 1.10,2013-02-07 17:16:00,
2013-02-07 12:31:00,39.7,33.0,30.27,East,86,6.0,9.0,76,0.01,,,0.01,weatherlink.com 1.10,2013-02-07 17:31:00,
2013-02-07 12:46:00,38.8,34.0,30.26,East,92,2.0,10.0,84,0.02,,,0.02,weatherlink.com 1.10,2013-02-07 17:46:00,
2013-02-07 13:01:00,38.7,35.0,30.25,East,91,3.0,7.0,86,0.03,,,0.03,weatherlink.com 1.10,2013-02-07 18:01:00,
2013-02-07 13:16:00,38.8,36.0,30.24,West,267,3.0,4.0,89,0.04,,,0.04,weatherlink.com 1.10,2013-02-07 18:16:00,
2013-02-07 13:31:00,38.5,36.0,30.24,East,84,0.0,3.0,91,0.05,,,0.06,weatherlink.com 1.10,2013-02-07 18:31:00,
2013-02-07 13:46:00,38.4,36.0,30.23,ESE,109,3.0,9.0,92,0.06,,,0.08,weatherlink.com 1.10,2013-02-07 18:46:00,
2013-02-07 14:01:00,38.5,37.0,30.23,ESE,109,1.0,7.0,93,0.05,,,0.08,weatherlink.com 1.10,2013-02-07 19:01:00,
2013-02-07 14:16:00,38.7,37.0,30.22,ESE,107,3.0,4.0,93,0.05,,,0.09,weatherlink.com 1.10,2013-02-07 19:16:00,
2013-02-07 14:31:00,39.0,37.0,30.22,ESE,111,3.0,9.0,93,0.04,,,0.10,weatherlink.com 1.10,2013-02-07 19:31:00,
2013-02-07 14:46:00,39.3,38.0,30.22,SE,127,6.0,10.0,93,0.03,,,0.11,weatherlink.com 1.10,2013-02-07 19:46:00,
2013-02-07 15:01:00,39.4,38.0,30.22,East,94,5.0,9.0,93,0.03,,,0.11,weatherlink.com 1.10,2013-02-07 20:01:00,
2013-02-07 15:16:00,39.5,38.0,30.21,East,98,3.0,8.0,94,0.02,,,0.11,weatherlink.com 1.10,2013-02-07 20:16:00,
2013-02-07 15:31:00,39.5,38.0,30.21,East,88,1.0,9.0,94,0.02,,,0.12,weatherlink.com 1.10,2013-02-07 20:31:00,
2013-02-07 15:46:00,39.6,38.0,30.20,ESE,114,5.0,10.0,94,0.01,,,0.12,weatherlink.com 1.10,2013-02-07 20:46:00,
2013-02-07 16:01:00,39.7,38.0,30.20,East,90,1.0,8.0,94,0.01,,,0.12,weatherlink.com 1.10,2013-02-07 21:01:00,
2013-02-07 16:16:00,39.5,38.0,30.19,ESE,102,9.0,13.0,94,0.01,,,0.12,weatherlink.com 1.10,2013-02-07 21:16:00,
2013-02-07 16:31:00,39.3,38.0,30.18,East,98,6.0,8.0,94,0.01,,,0.13,weatherlink.com 1.10,2013-02-07 21:31:00,
2013-02-07 16:46:00,39.2,38.0,30.18,East,93,5.0,14.0,94,0.01,,,0.13,weatherlink.com 1.10,2013-02-07 21:46:00,
2013-02-07 17:01:00,39.1,38.0,30.18,SE,137,3.0,7.0,95,0.02,,,0.14,weatherlink.com 1.10,2013-02-07 22:01:00,
2013-02-07 17:16:00,38.9,38.0,30.18,East,95,3.0,5.0,95,0.02,,,0.14,weatherlink.com 1.10,2013-02-07 22:16:00,
2013-02-07 17:31:00,38.7,37.0,30.18,SE,132,7.0,9.0,95,0.02,,,0.15,weatherlink.com 1.10,2013-02-07 22:31:00,
2013-02-07 17:46:00,38.7,37.0,30.17,ESE,116,2.0,7.0,95,0.03,,,0.16,weatherlink.com 1.10,2013-02-07 22:46:00,
2013-02-07 18:02:00,38.7,37.0,30.16,ESE,108,3.0,10.0,95,0.02,,,0.16,weatherlink.com 1.10,2013-02-07 23:02:00,
2013-02-07 18:17:00,38.8,38.0,30.16,East,83,2.0,7.0,95,0.03,,,0.17,weatherlink.com 1.10,2013-02-07 23:17:00,
2013-02-07 18:32:00,38.8,38.0,30.16,East,96,3.0,11.0,96,0.03,,,0.18,weatherlink.com 1.10,2013-02-07 23:32:00,
2013-02-07 18:47:00,39.2,38.0,30.15,ESE,107,2.0,7.0,96,0.03,,,0.19,weatherlink.com 1.10,2013-02-07 23:47:00,
2013-02-07 19:02:00,39.7,38.0,30.15,ESE,119,0.0,7.0,95,0.04,,,0.20,weatherlink.com 1.10,2013-02-08 00:02:00,
2013-02-07 19:17:00,40.4,39.0,30.16,East,98,3.0,13.0,94,0.04,,,0.21,weatherlink.com 1.10,2013-02-08 00:17:00,
2013-02-07 19:32:00,40.4,39.0,30.16,SE,138,4.0,5.0,95,0.04,,,0.22,weatherlink.com 1.10,2013-02-08 00:32:00,
2013-02-07 19:47:00,40.7,39.0,30.16,ESE,107,2.0,7.0,95,0.04,,,0.23,weatherlink.com 1.10,2013-02-08 00:47:00,
2013-02-07 20:02:00,40.9,40.0,30.15,SE,138,4.0,9.0,95,0.04,,,0.24,weatherlink.com 1.10,2013-02-08 01:02:00,
2013-02-07 20:17:00,40.9,40.0,30.14,ESE,103,4.0,6.0,95,0.04,,,0.25,weatherlink.com 1.10,2013-02-08 01:17:00,
2013-02-07 20:47:00,41.4,40.0,30.15,SE,126,4.0,9.0,94,0.03,,,0.26,weatherlink.com 1.10,2013-02-08 01:47:00,
2013-02-07 21:02:00,41.2,40.0,30.14,East,96,6.0,8.0,94,0.03,,,0.27,weatherlink.com 1.10,2013-02-08 02:02:00,
2013-02-07 21:17:00,41.0,39.0,30.14,East,98,6.0,12.0,94,0.02,,,0.27,weatherlink.com 1.10,2013-02-08 02:17:00,
2013-02-07 21:32:00,41.0,40.0,30.14,ESE,114,2.0,10.0,95,0.03,,,0.28,weatherlink.com 1.10,2013-02-08 02:32:00,
2013-02-07 21:47:00,41.2,40.0,30.13,ESE,103,4.0,9.0,95,0.02,,,0.28,weatherlink.com 1.10,2013-02-08 02:47:00,
2013-02-07 22:02:00,41.3,40.0,30.13,ESE,115,7.0,10.0,95,0.02,,,0.29,weatherlink.com 1.10,2013-02-08 03:02:00,
2013-02-07 22:17:00,41.3,40.0,30.12,ESE,104,4.0,12.0,94,0.02,,,0.29,weatherlink.com 1.10,2013-02-08 03:17:00,
2013-02-07 22:32:00,41.1,40.0,30.11,ESE,105,7.0,12.0,95,0.02,,,0.30,weatherlink.com 1.10,2013-02-08 03:32:00,
2013-02-07 22:47:00,41.0,39.0,30.11,East,92,6.0,11.0,94,0.02,,,0.30,weatherlink.com 1.10,2013-02-08 03:47:00,
2013-02-07 23:17:00,40.6,39.0,30.10,East,101,3.0,14.0,95,0.01,,,0.30,weatherlink.com 1.10,2013-02-08 04:17:00,
2013-02-07 23:32:00,40.4,39.0,30.11,East,95,6.0,10.0,95,0.00,,,0.30,weatherlink.com 1.10,2013-02-08 04:32:00,
2013-02-07 23:47:00,40.1,39.0,30.10,East,94,6.0,12.0,95,0.00,,,0.30,weatherlink.com 1.10,2013-02-08 04:47:00,